logo
Search for airport 
image banner adimage banner adimage banner ad
image banner ad

HKIL - Ileret (Main)

Located in , Kenya

ICAO - , IATA -

Data provided by Airmate  

General information

Coordinates: N4°16'49" E36°16'3"
Elevation is 1440 feet MSL.
 
View others Airports in Eastern Province

Operational data

Special qualification required
Current time UTC:
Current local time:
Weather at : - ( 0 km )
METAR: KEFD 230554Z 13003KT 10SM CLR 13/08 A3014
View NOTAMs / SUP AIP / TFR affecting this airport [VIEW]
Communications frequencies: [VIEW]

Runways:

RWY identifierQFULength (ft)Width (ft)SurfaceLDA (ft)
1500UNK
3300UNK

Airport contact information

Address: Kenya

Satellite view of HKIL